Terminal Aerodrome Forecast
Issued by NWS

Home | Current Version | Previous Version | Text Only | Print | Product List | Glossary On
Versions: 1 2 3 4 5 6 7 8 9 10 11 12 13 14 15 16 17 18 19 20 21
960
FTUS42 KTAE 202320
TAFVLD
TAF
KVLD 202320Z 2100/2124 21010KT P6SM BKN030
     FM210200 20006KT P6SM OVC020
     FM210600 19004KT 3SM BR OVC007
     FM211000 18005KT 1SM -RA BR OVC001
     FM211400 19010G18KT 3SM -RA BKN007 OVC015
     FM211700 19012KT 6SM -RA OVC025=

USA.gov is the U.S. government's official web portal to all federal, state and local government web resources and services.